sensor_id;sensor_type;location;lat;lon;timestamp;P1;durP1;ratioP1;P2;durP2;ratioP2
48285;SDS011;34102;47.716;10.296;2022-08-04T00:01:02;2.78;;;2.47;;
48285;SDS011;34102;47.716;10.296;2022-08-04T00:03:30;3.33;;;2.20;;
48285;SDS011;34102;47.716;10.296;2022-08-04T00:06:04;3.53;;;2.13;;
48285;SDS011;34102;47.716;10.296;2022-08-04T00:11:13;7.50;;;2.58;;
48285;SDS011;34102;47.716;10.296;2022-08-04T00:13:40;2.50;;;2.10;;
48285;SDS011;34102;47.716;10.296;2022-08-04T00:16:07;4.70;;;2.63;;
48285;SDS011;34102;47.716;10.296;2022-08-04T00:18:33;4.60;;;2.85;;
48285;SDS011;34102;47.716;10.296;2022-08-04T00:20:59;3.88;;;2.40;;
48285;SDS011;34102;47.716;10.296;2022-08-04T00:23:28;4.25;;;2.38;;
48285;SDS011;34102;47.716;10.296;2022-08-04T00:25:54;5.18;;;2.70;;
48285;SDS011;34102;47.716;10.296;2022-08-04T00:28:20;3.55;;;2.60;;
48285;SDS011;34102;47.716;10.296;2022-08-04T00:30:45;4.35;;;2.53;;
48285;SDS011;34102;47.716;10.296;2022-08-04T00:33:12;4.90;;;2.53;;
48285;SDS011;34102;47.716;10.296;2022-08-04T00:35:37;3.05;;;2.45;;
48285;SDS011;34102;47.716;10.296;2022-08-04T00:38:03;3.40;;;2.40;;
48285;SDS011;34102;47.716;10.296;2022-08-04T00:43:33;2.33;;;2.10;;
48285;SDS011;34102;47.716;10.296;2022-08-04T00:49:04;2.67;;;2.00;;
48285;SDS011;34102;47.716;10.296;2022-08-04T01:02:00;6.33;;;2.63;;
48285;SDS011;34102;47.716;10.296;2022-08-04T01:20:09;2.85;;;2.55;;
48285;SDS011;34102;47.716;10.296;2022-08-04T01:30:28;2.90;;;2.53;;
48285;SDS011;34102;47.716;10.296;2022-08-04T01:33:03;5.07;;;2.95;;
48285;SDS011;34102;47.716;10.296;2022-08-04T01:38:11;5.97;;;2.95;;
48285;SDS011;34102;47.716;10.296;2022-08-04T01:40:38;3.23;;;2.80;;
48285;SDS011;34102;47.716;10.296;2022-08-04T01:43:05;5.13;;;2.95;;
48285;SDS011;34102;47.716;10.296;2022-08-04T01:45:31;4.15;;;2.58;;
48285;SDS011;34102;47.716;10.296;2022-08-04T01:47:57;2.88;;;2.65;;
48285;SDS011;34102;47.716;10.296;2022-08-04T01:50:24;4.93;;;2.97;;
48285;SDS011;34102;47.716;10.296;2022-08-04T01:52:53;3.85;;;2.80;;
48285;SDS011;34102;47.716;10.296;2022-08-04T01:55:18;3.83;;;2.47;;
48285;SDS011;34102;47.716;10.296;2022-08-04T01:57:45;4.22;;;3.10;;
48285;SDS011;34102;47.716;10.296;2022-08-04T02:00:15;2.80;;;2.50;;
48285;SDS011;34102;47.716;10.296;2022-08-04T02:02:40;2.55;;;2.35;;
48285;SDS011;34102;47.716;10.296;2022-08-04T02:05:08;4.72;;;2.90;;
48285;SDS011;34102;47.716;10.296;2022-08-04T02:07:39;3.58;;;2.42;;
48285;SDS011;34102;47.716;10.296;2022-08-04T02:10:11;4.05;;;2.28;;
48285;SDS011;34102;47.716;10.296;2022-08-04T02:15:40;3.22;;;2.92;;
48285;SDS011;34102;47.716;10.296;2022-08-04T02:20:39;5.72;;;3.05;;
48285;SDS011;34102;47.716;10.296;2022-08-04T02:23:08;4.22;;;3.03;;
48285;SDS011;34102;47.716;10.296;2022-08-04T02:26:10;4.55;;;3.00;;
48285;SDS011;34102;47.716;10.296;2022-08-04T02:28:29;7.55;;;3.17;;
48285;SDS011;34102;47.716;10.296;2022-08-04T02:33:43;2.97;;;2.67;;
48285;SDS011;34102;47.716;10.296;2022-08-04T02:36:10;3.10;;;2.80;;
48285;SDS011;34102;47.716;10.296;2022-08-04T02:38:39;6.07;;;3.33;;
48285;SDS011;34102;47.716;10.296;2022-08-04T02:41:08;5.30;;;2.80;;
48285;SDS011;34102;47.716;10.296;2022-08-04T02:43:34;3.80;;;2.72;;
48285;SDS011;34102;47.716;10.296;2022-08-04T02:46:00;5.72;;;3.10;;
48285;SDS011;34102;47.716;10.296;2022-08-04T02:48:26;3.33;;;2.58;;
48285;SDS011;34102;47.716;10.296;2022-08-04T02:50:53;3.25;;;2.95;;
48285;SDS011;34102;47.716;10.296;2022-08-04T02:53:20;4.70;;;3.05;;
48285;SDS011;34102;47.716;10.296;2022-08-04T02:55:45;4.95;;;2.90;;
48285;SDS011;34102;47.716;10.296;2022-08-04T02:58:12;3.47;;;2.92;;
48285;SDS011;34102;47.716;10.296;2022-08-04T03:00:39;3.22;;;2.38;;
48285;SDS011;34102;47.716;10.296;2022-08-04T03:03:12;3.80;;;2.90;;
48285;SDS011;34102;47.716;10.296;2022-08-04T03:08:29;2.90;;;2.60;;
48285;SDS011;34102;47.716;10.296;2022-08-04T03:32:39;5.55;;;2.90;;
48285;SDS011;34102;47.716;10.296;2022-08-04T03:34:56;4.95;;;3.05;;
48285;SDS011;34102;47.716;10.296;2022-08-04T03:53:59;3.65;;;2.58;;
48285;SDS011;34102;47.716;10.296;2022-08-04T04:17:21;5.03;;;2.87;;
48285;SDS011;34102;47.716;10.296;2022-08-04T04:19:59;4.72;;;2.83;;
48285;SDS011;34102;47.716;10.296;2022-08-04T04:25:18;3.03;;;2.47;;
48285;SDS011;34102;47.716;10.296;2022-08-04T04:45:37;5.53;;;3.00;;
48285;SDS011;34102;47.716;10.296;2022-08-04T04:48:14;3.00;;;2.35;;
48285;SDS011;34102;47.716;10.296;2022-08-04T04:58:51;2.60;;;2.20;;
48285;SDS011;34102;47.716;10.296;2022-08-04T05:06:28;6.27;;;2.60;;
48285;SDS011;34102;47.716;10.296;2022-08-04T05:16:54;2.80;;;2.53;;
48285;SDS011;34102;47.716;10.296;2022-08-04T05:22:00;3.22;;;2.28;;
48285;SDS011;34102;47.716;10.296;2022-08-04T05:24:26;2.87;;;1.90;;
48285;SDS011;34102;47.716;10.296;2022-08-04T05:27:02;2.88;;;2.40;;
48285;SDS011;34102;47.716;10.296;2022-08-04T05:29:36;2.80;;;2.60;;
48285;SDS011;34102;47.716;10.296;2022-08-04T05:32:06;3.03;;;2.13;;
48285;SDS011;34102;47.716;10.296;2022-08-04T05:34:37;3.13;;;2.35;;
48285;SDS011;34102;47.716;10.296;2022-08-04T05:37:06;3.05;;;2.22;;
48285;SDS011;34102;47.716;10.296;2022-08-04T05:39:35;2.95;;;2.28;;
48285;SDS011;34102;47.716;10.296;2022-08-04T05:42:01;2.28;;;2.08;;
48285;SDS011;34102;47.716;10.296;2022-08-04T05:44:27;4.43;;;2.15;;
48285;SDS011;34102;47.716;10.296;2022-08-04T05:46:56;2.65;;;1.90;;
48285;SDS011;34102;47.716;10.296;2022-08-04T05:49:22;2.38;;;2.00;;
48285;SDS011;34102;47.716;10.296;2022-08-04T05:51:48;3.55;;;2.40;;
48285;SDS011;34102;47.716;10.296;2022-08-04T05:54:14;2.50;;;2.28;;
48285;SDS011;34102;47.716;10.296;2022-08-04T05:56:41;2.70;;;2.28;;
48285;SDS011;34102;47.716;10.296;2022-08-04T05:59:06;4.90;;;2.38;;
48285;SDS011;34102;47.716;10.296;2022-08-04T06:01:32;5.63;;;3.22;;
48285;SDS011;34102;47.716;10.296;2022-08-04T06:03:59;3.25;;;2.33;;
48285;SDS011;34102;47.716;10.296;2022-08-04T06:06:24;2.88;;;2.25;;
48285;SDS011;34102;47.716;10.296;2022-08-04T06:08:50;5.32;;;2.30;;
48285;SDS011;34102;47.716;10.296;2022-08-04T06:11:15;14.55;;;6.47;;
48285;SDS011;34102;47.716;10.296;2022-08-04T06:13:43;4.18;;;3.22;;
48285;SDS011;34102;47.716;10.296;2022-08-04T06:16:12;6.75;;;4.95;;
48285;SDS011;34102;47.716;10.296;2022-08-04T06:18:38;2.90;;;2.40;;
48285;SDS011;34102;47.716;10.296;2022-08-04T06:21:04;3.67;;;1.98;;
48285;SDS011;34102;47.716;10.296;2022-08-04T06:23:30;4.80;;;3.58;;
48285;SDS011;34102;47.716;10.296;2022-08-04T06:25:57;2.72;;;2.45;;
48285;SDS011;34102;47.716;10.296;2022-08-04T06:28:23;5.50;;;2.40;;
48285;SDS011;34102;47.716;10.296;2022-08-04T06:30:48;4.93;;;2.35;;
48285;SDS011;34102;47.716;10.296;2022-08-04T06:33:15;3.67;;;2.17;;
48285;SDS011;34102;47.716;10.296;2022-08-04T06:35:58;3.05;;;2.38;;
48285;SDS011;34102;47.716;10.296;2022-08-04T06:38:24;22.35;;;5.60;;
48285;SDS011;34102;47.716;10.296;2022-08-04T06:40:50;15.07;;;5.05;;
48285;SDS011;34102;47.716;10.296;2022-08-04T06:43:15;6.32;;;2.67;;
48285;SDS011;34102;47.716;10.296;2022-08-04T06:45:41;10.82;;;4.35;;
48285;SDS011;34102;47.716;10.296;2022-08-04T06:48:10;11.50;;;3.25;;
48285;SDS011;34102;47.716;10.296;2022-08-04T06:50:35;5.32;;;3.05;;
48285;SDS011;34102;47.716;10.296;2022-08-04T06:53:02;4.35;;;2.47;;
48285;SDS011;34102;47.716;10.296;2022-08-04T06:55:27;4.45;;;2.20;;
48285;SDS011;34102;47.716;10.296;2022-08-04T06:57:53;3.42;;;2.13;;
48285;SDS011;34102;47.716;10.296;2022-08-04T07:00:18;5.65;;;2.10;;
48285;SDS011;34102;47.716;10.296;2022-08-04T07:02:45;5.60;;;2.30;;
48285;SDS011;34102;47.716;10.296;2022-08-04T07:05:11;4.30;;;2.25;;
48285;SDS011;34102;47.716;10.296;2022-08-04T07:07:38;3.65;;;2.10;;
48285;SDS011;34102;47.716;10.296;2022-08-04T07:10:04;3.45;;;2.50;;
48285;SDS011;34102;47.716;10.296;2022-08-04T07:12:30;2.70;;;2.30;;
48285;SDS011;34102;47.716;10.296;2022-08-04T07:14:56;2.22;;;2.00;;
48285;SDS011;34102;47.716;10.296;2022-08-04T07:17:21;3.80;;;2.13;;
48285;SDS011;34102;47.716;10.296;2022-08-04T07:19:47;2.78;;;2.15;;
48285;SDS011;34102;47.716;10.296;2022-08-04T07:22:12;4.85;;;2.10;;
48285;SDS011;34102;47.716;10.296;2022-08-04T07:24:41;4.03;;;2.17;;
48285;SDS011;34102;47.716;10.296;2022-08-04T07:27:06;3.17;;;2.03;;
48285;SDS011;34102;47.716;10.296;2022-08-04T07:29:33;4.47;;;1.77;;
48285;SDS011;34102;47.716;10.296;2022-08-04T07:31:59;3.65;;;1.90;;
48285;SDS011;34102;47.716;10.296;2022-08-04T07:34:24;2.85;;;1.90;;
48285;SDS011;34102;47.716;10.296;2022-08-04T07:36:51;5.40;;;2.30;;
48285;SDS011;34102;47.716;10.296;2022-08-04T07:39:17;2.15;;;1.67;;
48285;SDS011;34102;47.716;10.296;2022-08-04T07:41:43;2.38;;;2.05;;
48285;SDS011;34102;47.716;10.296;2022-08-04T07:44:08;3.40;;;2.00;;
48285;SDS011;34102;47.716;10.296;2022-08-04T07:46:34;3.60;;;2.08;;
48285;SDS011;34102;47.716;10.296;2022-08-04T07:49:00;3.08;;;1.63;;
48285;SDS011;34102;47.716;10.296;2022-08-04T07:51:25;4.55;;;1.90;;
48285;SDS011;34102;47.716;10.296;2022-08-04T07:53:52;3.08;;;1.77;;
48285;SDS011;34102;47.716;10.296;2022-08-04T07:56:18;3.78;;;1.73;;
48285;SDS011;34102;47.716;10.296;2022-08-04T07:58:44;2.97;;;1.80;;
48285;SDS011;34102;47.716;10.296;2022-08-04T08:01:09;2.37;;;1.87;;
48285;SDS011;34102;47.716;10.296;2022-08-04T08:03:34;5.68;;;2.33;;
48285;SDS011;34102;47.716;10.296;2022-08-04T08:06:01;4.00;;;1.80;;
48285;SDS011;34102;47.716;10.296;2022-08-04T08:08:27;3.60;;;1.92;;
48285;SDS011;34102;47.716;10.296;2022-08-04T08:10:53;3.53;;;1.80;;
48285;SDS011;34102;47.716;10.296;2022-08-04T08:13:18;3.05;;;2.15;;
48285;SDS011;34102;47.716;10.296;2022-08-04T08:15:44;5.75;;;1.73;;
48285;SDS011;34102;47.716;10.296;2022-08-04T08:18:10;3.00;;;1.88;;
48285;SDS011;34102;47.716;10.296;2022-08-04T08:20:36;2.97;;;1.40;;
48285;SDS011;34102;47.716;10.296;2022-08-04T08:23:01;4.65;;;1.80;;
48285;SDS011;34102;47.716;10.296;2022-08-04T08:25:28;4.97;;;1.58;;
48285;SDS011;34102;47.716;10.296;2022-08-04T08:27:53;2.47;;;1.52;;
48285;SDS011;34102;47.716;10.296;2022-08-04T08:30:19;1.65;;;1.50;;
48285;SDS011;34102;47.716;10.296;2022-08-04T08:32:44;2.73;;;1.80;;
48285;SDS011;34102;47.716;10.296;2022-08-04T08:35:09;4.63;;;1.60;;
48285;SDS011;34102;47.716;10.296;2022-08-04T08:37:40;5.80;;;1.93;;
48285;SDS011;34102;47.716;10.296;2022-08-04T08:47:37;4.10;;;2.10;;
48285;SDS011;34102;47.716;10.296;2022-08-04T08:55:33;8.30;;;2.03;;
48285;SDS011;34102;47.716;10.296;2022-08-04T08:58:18;3.45;;;1.52;;
48285;SDS011;34102;47.716;10.296;2022-08-04T09:00:52;5.53;;;1.63;;
48285;SDS011;34102;47.716;10.296;2022-08-04T09:08:29;3.45;;;1.50;;
48285;SDS011;34102;47.716;10.296;2022-08-04T09:11:15;5.07;;;1.77;;
48285;SDS011;34102;47.716;10.296;2022-08-04T09:13:47;4.32;;;1.60;;
48285;SDS011;34102;47.716;10.296;2022-08-04T09:16:23;4.28;;;1.73;;
48285;SDS011;34102;47.716;10.296;2022-08-04T09:24:03;1.95;;;1.67;;
48285;SDS011;34102;47.716;10.296;2022-08-04T09:27:13;3.85;;;1.63;;
48285;SDS011;34102;47.716;10.296;2022-08-04T09:29:19;12.77;;;2.85;;
48285;SDS011;34102;47.716;10.296;2022-08-04T09:37:06;3.08;;;1.50;;
48285;SDS011;34102;47.716;10.296;2022-08-04T09:45:15;3.97;;;1.40;;
48285;SDS011;34102;47.716;10.296;2022-08-04T09:47:54;1.95;;;1.70;;
48285;SDS011;34102;47.716;10.296;2022-08-04T09:58:16;2.00;;;1.40;;
48285;SDS011;34102;47.716;10.296;2022-08-04T10:00:40;3.40;;;1.38;;
48285;SDS011;34102;47.716;10.296;2022-08-04T10:03:09;2.33;;;1.35;;
48285;SDS011;34102;47.716;10.296;2022-08-04T10:05:41;5.55;;;1.60;;
48285;SDS011;34102;47.716;10.296;2022-08-04T10:10:44;1.90;;;1.40;;
48285;SDS011;34102;47.716;10.296;2022-08-04T10:13:20;2.03;;;1.63;;
48285;SDS011;34102;47.716;10.296;2022-08-04T10:18:47;1.92;;;1.70;;
48285;SDS011;34102;47.716;10.296;2022-08-04T10:24:03;4.37;;;1.70;;
48285;SDS011;34102;47.716;10.296;2022-08-04T10:26:35;2.85;;;2.00;;
48285;SDS011;34102;47.716;10.296;2022-08-04T10:29:13;4.28;;;1.70;;
48285;SDS011;34102;47.716;10.296;2022-08-04T10:31:45;1.85;;;1.73;;
48285;SDS011;34102;47.716;10.296;2022-08-04T10:34:16;2.78;;;1.88;;
48285;SDS011;34102;47.716;10.296;2022-08-04T10:36:52;4.63;;;1.88;;
48285;SDS011;34102;47.716;10.296;2022-08-04T10:39:24;2.53;;;1.63;;
48285;SDS011;34102;47.716;10.296;2022-08-04T10:42:02;2.80;;;1.80;;
48285;SDS011;34102;47.716;10.296;2022-08-04T10:46:56;3.20;;;1.50;;
48285;SDS011;34102;47.716;10.296;2022-08-04T10:52:25;5.43;;;1.92;;
48285;SDS011;34102;47.716;10.296;2022-08-04T10:57:25;3.47;;;1.80;;
48285;SDS011;34102;47.716;10.296;2022-08-04T11:00:35;2.03;;;1.83;;
48285;SDS011;34102;47.716;10.296;2022-08-04T11:07:33;3.78;;;1.52;;
48285;SDS011;34102;47.716;10.296;2022-08-04T11:10:01;1.85;;;1.10;;
48285;SDS011;34102;47.716;10.296;2022-08-04T11:12:27;4.05;;;1.48;;
48285;SDS011;34102;47.716;10.296;2022-08-04T11:14:55;2.35;;;1.55;;
48285;SDS011;34102;47.716;10.296;2022-08-04T11:17:26;1.70;;;1.30;;
48285;SDS011;34102;47.716;10.296;2022-08-04T11:22:30;2.03;;;1.17;;
48285;SDS011;34102;47.716;10.296;2022-08-04T11:27:59;2.78;;;1.52;;
48285;SDS011;34102;47.716;10.296;2022-08-04T11:30:31;3.90;;;1.35;;
48285;SDS011;34102;47.716;10.296;2022-08-04T11:35:30;1.80;;;1.50;;
48285;SDS011;34102;47.716;10.296;2022-08-04T11:40:40;2.65;;;1.13;;
48285;SDS011;34102;47.716;10.296;2022-08-04T11:43:08;1.67;;;1.33;;
48285;SDS011;34102;47.716;10.296;2022-08-04T11:48:36;1.10;;;1.00;;
48285;SDS011;34102;47.716;10.296;2022-08-04T11:51:05;2.85;;;1.30;;
48285;SDS011;34102;47.716;10.296;2022-08-04T11:53:31;3.72;;;1.73;;
48285;SDS011;34102;47.716;10.296;2022-08-04T11:56:02;3.08;;;1.08;;
48285;SDS011;34102;47.716;10.296;2022-08-04T11:58:27;3.65;;;1.08;;
48285;SDS011;34102;47.716;10.296;2022-08-04T12:12:01;30.25;;;2.72;;
48285;SDS011;34102;47.716;10.296;2022-08-04T12:14:27;10.02;;;1.63;;
48285;SDS011;34102;47.716;10.296;2022-08-04T12:16:57;9.30;;;1.80;;
48285;SDS011;34102;47.716;10.296;2022-08-04T12:21:58;1.77;;;0.90;;
48285;SDS011;34102;47.716;10.296;2022-08-04T12:24:27;5.32;;;0.90;;
48285;SDS011;34102;47.716;10.296;2022-08-04T12:26:56;2.17;;;0.60;;
48285;SDS011;34102;47.716;10.296;2022-08-04T12:29:22;2.60;;;0.88;;
48285;SDS011;34102;47.716;10.296;2022-08-04T12:37:01;13.50;;;5.22;;
48285;SDS011;34102;47.716;10.296;2022-08-04T12:39:26;1.13;;;0.70;;
48285;SDS011;34102;47.716;10.296;2022-08-04T12:44:30;1.20;;;0.98;;
48285;SDS011;34102;47.716;10.296;2022-08-04T12:46:57;2.88;;;0.80;;
48285;SDS011;34102;47.716;10.296;2022-08-04T12:49:23;3.75;;;1.13;;
48285;SDS011;34102;47.716;10.296;2022-08-04T12:51:49;2.15;;;0.80;;
48285;SDS011;34102;47.716;10.296;2022-08-04T12:54:15;0.95;;;0.80;;
48285;SDS011;34102;47.716;10.296;2022-08-04T12:56:46;1.23;;;0.93;;
48285;SDS011;34102;47.716;10.296;2022-08-04T12:59:14;0.93;;;0.70;;
48285;SDS011;34102;47.716;10.296;2022-08-04T13:01:46;3.40;;;0.70;;
48285;SDS011;34102;47.716;10.296;2022-08-04T13:04:16;1.77;;;0.85;;
48285;SDS011;34102;47.716;10.296;2022-08-04T13:06:42;1.75;;;0.70;;
48285;SDS011;34102;47.716;10.296;2022-08-04T13:09:09;0.73;;;0.60;;
48285;SDS011;34102;47.716;10.296;2022-08-04T13:11:43;2.75;;;1.02;;
48285;SDS011;34102;47.716;10.296;2022-08-04T13:14:10;4.32;;;0.70;;
48285;SDS011;34102;47.716;10.296;2022-08-04T13:16:36;8.63;;;0.80;;
48285;SDS011;34102;47.716;10.296;2022-08-04T13:19:04;0.77;;;0.70;;
48285;SDS011;34102;47.716;10.296;2022-08-04T13:21:30;2.30;;;0.45;;
48285;SDS011;34102;47.716;10.296;2022-08-04T13:23:56;36.25;;;2.50;;
48285;SDS011;34102;47.716;10.296;2022-08-04T13:26:22;5.38;;;1.15;;
48285;SDS011;34102;47.716;10.296;2022-08-04T13:28:48;1.45;;;0.63;;
48285;SDS011;34102;47.716;10.296;2022-08-04T13:31:22;10.55;;;1.17;;
48285;SDS011;34102;47.716;10.296;2022-08-04T13:33:48;9.38;;;1.27;;
48285;SDS011;34102;47.716;10.296;2022-08-04T13:36:14;2.28;;;1.08;;
48285;SDS011;34102;47.716;10.296;2022-08-04T13:38:55;3.13;;;1.13;;
48285;SDS011;34102;47.716;10.296;2022-08-04T13:41:21;9.23;;;1.00;;
48285;SDS011;34102;47.716;10.296;2022-08-04T13:43:48;1.63;;;0.90;;
48285;SDS011;34102;47.716;10.296;2022-08-04T13:46:16;1.63;;;0.80;;
48285;SDS011;34102;47.716;10.296;2022-08-04T13:48:45;2.40;;;0.50;;
48285;SDS011;34102;47.716;10.296;2022-08-04T13:51:10;4.10;;;0.80;;
48285;SDS011;34102;47.716;10.296;2022-08-04T13:53:39;2.25;;;0.70;;
48285;SDS011;34102;47.716;10.296;2022-08-04T13:56:06;3.30;;;0.90;;
48285;SDS011;34102;47.716;10.296;2022-08-04T13:58:32;1.80;;;0.60;;
48285;SDS011;34102;47.716;10.296;2022-08-04T14:00:59;3.08;;;0.80;;
48285;SDS011;34102;47.716;10.296;2022-08-04T14:03:36;0.90;;;0.70;;
48285;SDS011;34102;47.716;10.296;2022-08-04T14:08:33;1.88;;;0.80;;
48285;SDS011;34102;47.716;10.296;2022-08-04T14:11:00;3.05;;;0.63;;
48285;SDS011;34102;47.716;10.296;2022-08-04T14:13:29;2.17;;;0.70;;
48285;SDS011;34102;47.716;10.296;2022-08-04T14:15:55;4.72;;;0.60;;
48285;SDS011;34102;47.716;10.296;2022-08-04T14:18:21;4.35;;;0.80;;
48285;SDS011;34102;47.716;10.296;2022-08-04T14:20:57;60.38;;;4.28;;
48285;SDS011;34102;47.716;10.296;2022-08-04T14:23:23;18.20;;;2.55;;
48285;SDS011;34102;47.716;10.296;2022-08-04T14:25:48;68.82;;;5.88;;
48285;SDS011;34102;47.716;10.296;2022-08-04T14:28:13;1.80;;;1.00;;
48285;SDS011;34102;47.716;10.296;2022-08-04T14:30:51;7.20;;;1.23;;
48285;SDS011;34102;47.716;10.296;2022-08-04T14:33:16;18.45;;;2.20;;
48285;SDS011;34102;47.716;10.296;2022-08-04T14:35:42;1.25;;;0.57;;
48285;SDS011;34102;47.716;10.296;2022-08-04T14:38:19;41.03;;;3.25;;
48285;SDS011;34102;47.716;10.296;2022-08-04T14:40:45;31.60;;;2.83;;
48285;SDS011;34102;47.716;10.296;2022-08-04T14:43:10;24.33;;;2.38;;
48285;SDS011;34102;47.716;10.296;2022-08-04T14:45:42;0.77;;;0.65;;
48285;SDS011;34102;47.716;10.296;2022-08-04T14:48:08;4.25;;;0.95;;
48285;SDS011;34102;47.716;10.296;2022-08-04T14:50:35;2.50;;;1.13;;
48285;SDS011;34102;47.716;10.296;2022-08-04T14:53:02;10.48;;;1.85;;
48285;SDS011;34102;47.716;10.296;2022-08-04T14:55:28;1.88;;;0.80;;
48285;SDS011;34102;47.716;10.296;2022-08-04T14:57:54;1.52;;;0.70;;
48285;SDS011;34102;47.716;10.296;2022-08-04T15:00:22;2.28;;;0.80;;
48285;SDS011;34102;47.716;10.296;2022-08-04T15:02:48;2.28;;;0.90;;
48285;SDS011;34102;47.716;10.296;2022-08-04T15:05:14;5.38;;;1.05;;
48285;SDS011;34102;47.716;10.296;2022-08-04T15:07:39;1.15;;;0.80;;
48285;SDS011;34102;47.716;10.296;2022-08-04T15:10:05;7.15;;;1.10;;
48285;SDS011;34102;47.716;10.296;2022-08-04T15:12:30;4.55;;;0.85;;
48285;SDS011;34102;47.716;10.296;2022-08-04T15:14:55;28.83;;;2.63;;
48285;SDS011;34102;47.716;10.296;2022-08-04T15:17:21;1.20;;;0.73;;
48285;SDS011;34102;47.716;10.296;2022-08-04T15:19:46;1.92;;;0.68;;
48285;SDS011;34102;47.716;10.296;2022-08-04T15:22:12;6.57;;;1.20;;
48285;SDS011;34102;47.716;10.296;2022-08-04T15:24:37;1.43;;;0.70;;
48285;SDS011;34102;47.716;10.296;2022-08-04T15:27:02;2.83;;;0.80;;
48285;SDS011;34102;47.716;10.296;2022-08-04T15:29:35;5.57;;;0.85;;
48285;SDS011;34102;47.716;10.296;2022-08-04T15:32:02;8.85;;;1.38;;
48285;SDS011;34102;47.716;10.296;2022-08-04T15:34:42;2.53;;;0.65;;
48285;SDS011;34102;47.716;10.296;2022-08-04T15:37:07;2.00;;;0.70;;
48285;SDS011;34102;47.716;10.296;2022-08-04T15:39:33;10.52;;;1.40;;
48285;SDS011;34102;47.716;10.296;2022-08-04T15:47:09;3.42;;;1.08;;
48285;SDS011;34102;47.716;10.296;2022-08-04T15:49:34;1.48;;;0.80;;
48285;SDS011;34102;47.716;10.296;2022-08-04T15:52:06;1.27;;;0.60;;
48285;SDS011;34102;47.716;10.296;2022-08-04T15:54:31;6.55;;;0.93;;
48285;SDS011;34102;47.716;10.296;2022-08-04T15:56:57;2.78;;;0.60;;
48285;SDS011;34102;47.716;10.296;2022-08-04T16:04:55;2.03;;;0.82;;
48285;SDS011;34102;47.716;10.296;2022-08-04T16:10:40;1.77;;;0.80;;
48285;SDS011;34102;47.716;10.296;2022-08-04T16:15:42;1.60;;;0.60;;
48285;SDS011;34102;47.716;10.296;2022-08-04T16:18:08;1.60;;;0.63;;
48285;SDS011;34102;47.716;10.296;2022-08-04T16:20:34;0.68;;;0.38;;
48285;SDS011;34102;47.716;10.296;2022-08-04T16:23:01;1.95;;;0.70;;
48285;SDS011;34102;47.716;10.296;2022-08-04T16:25:44;1.10;;;0.65;;
48285;SDS011;34102;47.716;10.296;2022-08-04T16:28:39;2.00;;;0.65;;
48285;SDS011;34102;47.716;10.296;2022-08-04T16:31:05;1.55;;;0.80;;
48285;SDS011;34102;47.716;10.296;2022-08-04T16:33:31;0.73;;;0.50;;
48285;SDS011;34102;47.716;10.296;2022-08-04T16:35:57;2.10;;;0.60;;
48285;SDS011;34102;47.716;10.296;2022-08-04T16:38:22;1.55;;;0.60;;
48285;SDS011;34102;47.716;10.296;2022-08-04T16:40:55;1.13;;;0.70;;
48285;SDS011;34102;47.716;10.296;2022-08-04T16:43:27;1.80;;;0.88;;
48285;SDS011;34102;47.716;10.296;2022-08-04T16:46:02;1.98;;;0.88;;
48285;SDS011;34102;47.716;10.296;2022-08-04T16:48:34;1.40;;;0.77;;
48285;SDS011;34102;47.716;10.296;2022-08-04T16:51:04;2.65;;;0.80;;
48285;SDS011;34102;47.716;10.296;2022-08-04T16:53:43;1.53;;;0.80;;
48285;SDS011;34102;47.716;10.296;2022-08-04T16:56:09;1.10;;;0.82;;
48285;SDS011;34102;47.716;10.296;2022-08-04T16:58:35;4.00;;;0.82;;
48285;SDS011;34102;47.716;10.296;2022-08-04T17:01:07;3.25;;;0.90;;
48285;SDS011;34102;47.716;10.296;2022-08-04T17:03:34;1.63;;;1.00;;
48285;SDS011;34102;47.716;10.296;2022-08-04T17:06:04;1.75;;;0.70;;
48285;SDS011;34102;47.716;10.296;2022-08-04T17:08:30;2.30;;;0.70;;
48285;SDS011;34102;47.716;10.296;2022-08-04T17:10:56;1.33;;;0.80;;
48285;SDS011;34102;47.716;10.296;2022-08-04T17:15:54;0.95;;;0.70;;
48285;SDS011;34102;47.716;10.296;2022-08-04T17:18:22;3.22;;;0.70;;
48285;SDS011;34102;47.716;10.296;2022-08-04T17:20:48;1.77;;;0.90;;
48285;SDS011;34102;47.716;10.296;2022-08-04T17:23:21;2.58;;;0.68;;
48285;SDS011;34102;47.716;10.296;2022-08-04T17:25:54;1.27;;;0.80;;
48285;SDS011;34102;47.716;10.296;2022-08-04T17:28:19;2.22;;;0.80;;
48285;SDS011;34102;47.716;10.296;2022-08-04T17:30:45;4.95;;;1.10;;
48285;SDS011;34102;47.716;10.296;2022-08-04T17:33:11;1.13;;;0.73;;
48285;SDS011;34102;47.716;10.296;2022-08-04T17:35:38;4.93;;;0.90;;
48285;SDS011;34102;47.716;10.296;2022-08-04T17:38:04;3.03;;;0.80;;
48285;SDS011;34102;47.716;10.296;2022-08-04T17:40:29;3.77;;;0.90;;
48285;SDS011;34102;47.716;10.296;2022-08-04T17:43:01;3.65;;;0.57;;
48285;SDS011;34102;47.716;10.296;2022-08-04T17:45:27;3.05;;;0.90;;
48285;SDS011;34102;47.716;10.296;2022-08-04T17:47:52;2.07;;;0.60;;
48285;SDS011;34102;47.716;10.296;2022-08-04T17:50:26;3.53;;;1.27;;
48285;SDS011;34102;47.716;10.296;2022-08-04T17:53:09;1.35;;;0.80;;
48285;SDS011;34102;47.716;10.296;2022-08-04T17:55:45;1.48;;;0.82;;
48285;SDS011;34102;47.716;10.296;2022-08-04T17:58:10;2.05;;;1.20;;
48285;SDS011;34102;47.716;10.296;2022-08-04T18:00:36;2.20;;;0.90;;
48285;SDS011;34102;47.716;10.296;2022-08-04T18:03:01;2.50;;;0.87;;
48285;SDS011;34102;47.716;10.296;2022-08-04T18:05:27;4.70;;;1.60;;
48285;SDS011;34102;47.716;10.296;2022-08-04T18:07:53;4.38;;;1.13;;
48285;SDS011;34102;47.716;10.296;2022-08-04T18:10:19;4.35;;;0.88;;
48285;SDS011;34102;47.716;10.296;2022-08-04T18:12:45;1.95;;;1.10;;
48285;SDS011;34102;47.716;10.296;2022-08-04T18:15:20;3.37;;;0.83;;
48285;SDS011;34102;47.716;10.296;2022-08-04T18:17:46;3.75;;;0.90;;
48285;SDS011;34102;47.716;10.296;2022-08-04T18:20:13;3.60;;;0.90;;
48285;SDS011;34102;47.716;10.296;2022-08-04T18:22:41;2.80;;;1.05;;
48285;SDS011;34102;47.716;10.296;2022-08-04T18:25:08;3.67;;;1.30;;
48285;SDS011;34102;47.716;10.296;2022-08-04T18:27:33;4.07;;;1.20;;
48285;SDS011;34102;47.716;10.296;2022-08-04T18:29:59;2.47;;;1.10;;
48285;SDS011;34102;47.716;10.296;2022-08-04T18:32:26;5.05;;;1.20;;
48285;SDS011;34102;47.716;10.296;2022-08-04T18:34:54;5.55;;;1.40;;
48285;SDS011;34102;47.716;10.296;2022-08-04T18:37:21;6.13;;;1.60;;
48285;SDS011;34102;47.716;10.296;2022-08-04T18:39:46;5.03;;;1.07;;
48285;SDS011;34102;47.716;10.296;2022-08-04T18:42:13;2.22;;;1.40;;
48285;SDS011;34102;47.716;10.296;2022-08-04T18:44:38;1.77;;;1.13;;
48285;SDS011;34102;47.716;10.296;2022-08-04T18:47:04;2.72;;;1.30;;
48285;SDS011;34102;47.716;10.296;2022-08-04T18:49:29;3.30;;;1.45;;
48285;SDS011;34102;47.716;10.296;2022-08-04T18:51:55;1.77;;;0.80;;
48285;SDS011;34102;47.716;10.296;2022-08-04T18:54:21;3.83;;;1.42;;
48285;SDS011;34102;47.716;10.296;2022-08-04T18:56:48;4.13;;;1.38;;
48285;SDS011;34102;47.716;10.296;2022-08-04T18:59:14;1.15;;;1.00;;
48285;SDS011;34102;47.716;10.296;2022-08-04T19:04:07;2.85;;;1.20;;
48285;SDS011;34102;47.716;10.296;2022-08-04T19:06:33;2.67;;;1.20;;
48285;SDS011;34102;47.716;10.296;2022-08-04T19:08:59;5.95;;;1.30;;
48285;SDS011;34102;47.716;10.296;2022-08-04T19:11:29;1.63;;;1.52;;
48285;SDS011;34102;47.716;10.296;2022-08-04T19:13:54;4.05;;;1.10;;
48285;SDS011;34102;47.716;10.296;2022-08-04T19:16:19;2.42;;;1.30;;
48285;SDS011;34102;47.716;10.296;2022-08-04T19:18:45;4.78;;;1.10;;
48285;SDS011;34102;47.716;10.296;2022-08-04T19:21:10;84.13;;;6.03;;